Aérodrome :
LOGIN :

S'inscrire | Disclaimer

   EN    FR    IT 

 










Légende :    VFR   VFR Marginal   IFR   IFR Intensif   IFR Très Intensif
Visi : 
Plafond : 
>= 8 km
>= 3000ft
5 à 8 km
1000 à 3000 ft
1500m à 5 km
500 à 1000 ft
800 à 1500m
200 à 500 ft
< 800m
< 200 ft
Symboles :   Orages  Brouillard  Fortes neiges  Fortes précipitations  Vent > 20 kt
SIGMETs :   Divers  Orages  Givrage  Turbulence  Onde Orograph.  Cendres Volcan.






- Altitude de l'aérodrome : 587 ft
- Code IATA : XCR


LFOK - Chalons Vatry

DERNIER METAR :
  • 240100Z AUTO 09008KT 4800 BR NSC M02/M03 Q1024 TEMPO 2000 OVC003

METARs EXPIRÉS :
  • 240030Z AUTO 10010KT 5000 BR NSC M02/M03 Q1024 TEMPO 2000 OVC003
  • 240000Z AUTO 10008KT 5000 BR NSC M02/M03 Q1025 TEMPO 2000 OVC003
  • 232330Z AUTO 08009KT 5000 BR NSC M02/M02 Q1025 TEMPO 2000 OVC003
  • 232300Z AUTO 08008KT 6000 NSC M02/M02 Q1025 TEMPO 3000 BR OVC003
  • 232230Z AUTO 09007KT 5000 BR NSC M02/M03 Q1025 TEMPO OVC003

TAF TAF LFOK
Valide du 24 à 00h jusqu'au 25 à 00h UTC


232300Z 2400/2424 05007KT 4000 BR NSC
PROB30 2400/2407 2000 OVC003
BECMG 2408/2411 8000 NSW
BECMG 2416/2419 0300 FG VV///



MET'MAP, la Météo Aéronautique d'un coup d'oeil ! - Copyright ORBIFLY Décembre 2007 - Disclaimer

ORBIFLY MET'MAP TEAM :

Programmation & Développement : Alexandra Zaïnal
Sur une idée originale de : Baudouin d'Aumeries
Assistance à la programmation : Marc-Olivier Méhu
Soutien technique & logistique : Manuel Goepfert

Contact : metmap@orbifly.com




SOURCES & CREDITS :

   NOAA